sensor_id;sensor_type;location;lat;lon;timestamp;temperature;humidity
67572;SHT31;54397;47.506;19.158;2024-01-07T00:00:50;8.37;89.08
67572;SHT31;54397;47.506;19.158;2024-01-07T00:04:12;8.46;88.62
67572;SHT31;54397;47.506;19.158;2024-01-07T00:07:36;8.47;88.35
67572;SHT31;54397;47.506;19.158;2024-01-07T00:10:57;8.43;88.37
67572;SHT31;54397;47.506;19.158;2024-01-07T00:14:21;8.46;88.40
67572;SHT31;54397;47.506;19.158;2024-01-07T00:17:43;8.37;88.41
67572;SHT31;54397;47.506;19.158;2024-01-07T00:21:04;8.37;88.29
67572;SHT31;54397;47.506;19.158;2024-01-07T00:24:28;8.43;88.28
67572;SHT31;54397;47.506;19.158;2024-01-07T00:27:50;8.40;88.40
67572;SHT31;54397;47.506;19.158;2024-01-07T00:31:17;8.33;88.63
67572;SHT31;54397;47.506;19.158;2024-01-07T00:34:38;8.30;88.58
67572;SHT31;54397;47.506;19.158;2024-01-07T00:38:03;8.34;88.39
67572;SHT31;54397;47.506;19.158;2024-01-07T00:41:25;8.49;88.07
67572;SHT31;54397;47.506;19.158;2024-01-07T00:44:46;8.51;87.88
67572;SHT31;54397;47.506;19.158;2024-01-07T00:48:10;8.47;88.07
67572;SHT31;54397;47.506;19.158;2024-01-07T00:51:32;8.43;88.02
67572;SHT31;54397;47.506;19.158;2024-01-07T00:54:54;8.44;87.88
67572;SHT31;54397;47.506;19.158;2024-01-07T00:58:16;8.26;88.34
67572;SHT31;54397;47.506;19.158;2024-01-07T01:01:40;8.43;88.37
67572;SHT31;54397;47.506;19.158;2024-01-07T01:05:03;8.32;88.60
67572;SHT31;54397;47.506;19.158;2024-01-07T01:08:29;8.29;88.70
67572;SHT31;54397;47.506;19.158;2024-01-07T01:11:53;8.32;88.65
67572;SHT31;54397;47.506;19.158;2024-01-07T01:15:17;8.17;89.03
67572;SHT31;54397;47.506;19.158;2024-01-07T01:18:41;8.25;89.14
67572;SHT31;54397;47.506;19.158;2024-01-07T01:22:03;8.25;88.74
67572;SHT31;54397;47.506;19.158;2024-01-07T01:25:25;8.37;88.66
67572;SHT31;54397;47.506;19.158;2024-01-07T01:28:47;8.32;88.63
67572;SHT31;54397;47.506;19.158;2024-01-07T01:32:09;8.30;89.06
67572;SHT31;54397;47.506;19.158;2024-01-07T01:35:31;8.29;89.23
67572;SHT31;54397;47.506;19.158;2024-01-07T01:38:53;8.30;89.19
67572;SHT31;54397;47.506;19.158;2024-01-07T01:42:17;8.23;89.32
67572;SHT31;54397;47.506;19.158;2024-01-07T01:45:40;8.25;89.21
67572;SHT31;54397;47.506;19.158;2024-01-07T01:49:02;8.28;89.21
67572;SHT31;54397;47.506;19.158;2024-01-07T01:52:24;8.32;89.19
67572;SHT31;54397;47.506;19.158;2024-01-07T01:55:49;8.32;89.41
67572;SHT31;54397;47.506;19.158;2024-01-07T01:59:14;8.33;89.18
67572;SHT31;54397;47.506;19.158;2024-01-07T02:02:35;8.23;89.65
67572;SHT31;54397;47.506;19.158;2024-01-07T02:05:57;8.28;89.61
67572;SHT31;54397;47.506;19.158;2024-01-07T02:09:19;8.36;89.39
67572;SHT31;54397;47.506;19.158;2024-01-07T02:12:41;8.29;89.06
67572;SHT31;54397;47.506;19.158;2024-01-07T02:16:03;8.37;89.10
67572;SHT31;54397;47.506;19.158;2024-01-07T02:19:24;8.32;89.41
67572;SHT31;54397;47.506;19.158;2024-01-07T02:22:46;8.34;89.49
67572;SHT31;54397;47.506;19.158;2024-01-07T02:26:10;8.25;89.90
67572;SHT31;54397;47.506;19.158;2024-01-07T02:29:32;8.13;90.18
67572;SHT31;54397;47.506;19.158;2024-01-07T02:33:03;8.20;90.08
67572;SHT31;54397;47.506;19.158;2024-01-07T02:36:28;8.13;90.30
67572;SHT31;54397;47.506;19.158;2024-01-07T02:39:49;8.13;90.14
67572;SHT31;54397;47.506;19.158;2024-01-07T02:43:24;8.12;90.22
67572;SHT31;54397;47.506;19.158;2024-01-07T02:46:48;8.19;90.09
67572;SHT31;54397;47.506;19.158;2024-01-07T02:50:13;8.09;90.34
67572;SHT31;54397;47.506;19.158;2024-01-07T02:53:34;8.16;90.33
67572;SHT31;54397;47.506;19.158;2024-01-07T02:56:56;8.13;90.32
67572;SHT31;54397;47.506;19.158;2024-01-07T03:00:18;8.10;90.38
67572;SHT31;54397;47.506;19.158;2024-01-07T03:03:45;8.12;90.42
67572;SHT31;54397;47.506;19.158;2024-01-07T03:07:07;8.10;90.65
67572;SHT31;54397;47.506;19.158;2024-01-07T03:10:33;8.03;90.53
67572;SHT31;54397;47.506;19.158;2024-01-07T03:13:55;8.07;90.54
67572;SHT31;54397;47.506;19.158;2024-01-07T03:17:20;8.07;90.43
67572;SHT31;54397;47.506;19.158;2024-01-07T03:20:45;8.17;90.60
67572;SHT31;54397;47.506;19.158;2024-01-07T03:24:07;8.16;90.31
67572;SHT31;54397;47.506;19.158;2024-01-07T03:27:29;8.23;90.19
67572;SHT31;54397;47.506;19.158;2024-01-07T03:30:50;8.26;90.01
67572;SHT31;54397;47.506;19.158;2024-01-07T03:34:15;8.22;90.07
67572;SHT31;54397;47.506;19.158;2024-01-07T03:37:39;8.20;89.94
67572;SHT31;54397;47.506;19.158;2024-01-07T03:41:01;8.14;90.46
67572;SHT31;54397;47.506;19.158;2024-01-07T03:44:22;8.19;90.21
67572;SHT31;54397;47.506;19.158;2024-01-07T03:47:46;8.12;90.52
67572;SHT31;54397;47.506;19.158;2024-01-07T03:51:08;8.09;90.76
67572;SHT31;54397;47.506;19.158;2024-01-07T03:54:32;8.09;90.67
67572;SHT31;54397;47.506;19.158;2024-01-07T03:57:54;8.07;90.64
67572;SHT31;54397;47.506;19.158;2024-01-07T04:01:17;8.13;90.56
67572;SHT31;54397;47.506;19.158;2024-01-07T04:04:42;8.19;90.10
67572;SHT31;54397;47.506;19.158;2024-01-07T04:08:04;8.14;90.26
67572;SHT31;54397;47.506;19.158;2024-01-07T04:11:28;8.29;90.07
67572;SHT31;54397;47.506;19.158;2024-01-07T04:14:52;8.25;90.13
67572;SHT31;54397;47.506;19.158;2024-01-07T04:18:13;8.23;89.72
67572;SHT31;54397;47.506;19.158;2024-01-07T04:21:38;8.26;89.96
67572;SHT31;54397;47.506;19.158;2024-01-07T04:25:02;8.36;90.17
67572;SHT31;54397;47.506;19.158;2024-01-07T04:28:24;8.25;89.69
67572;SHT31;54397;47.506;19.158;2024-01-07T04:31:46;8.20;89.85
67572;SHT31;54397;47.506;19.158;2024-01-07T04:35:13;8.14;90.10
67572;SHT31;54397;47.506;19.158;2024-01-07T04:38:35;8.13;90.32
67572;SHT31;54397;47.506;19.158;2024-01-07T04:41:59;8.02;90.34
67572;SHT31;54397;47.506;19.158;2024-01-07T04:45:20;8.02;90.59
67572;SHT31;54397;47.506;19.158;2024-01-07T04:48:44;8.06;90.56
67572;SHT31;54397;47.506;19.158;2024-01-07T04:52:05;8.07;90.47
67572;SHT31;54397;47.506;19.158;2024-01-07T04:55:27;8.14;89.99
67572;SHT31;54397;47.506;19.158;2024-01-07T04:58:49;8.09;90.21
67572;SHT31;54397;47.506;19.158;2024-01-07T05:02:13;8.14;90.36
67572;SHT31;54397;47.506;19.158;2024-01-07T05:05:35;8.06;90.43
67572;SHT31;54397;47.506;19.158;2024-01-07T05:08:58;8.03;90.68
67572;SHT31;54397;47.506;19.158;2024-01-07T05:12:19;8.12;90.44
67572;SHT31;54397;47.506;19.158;2024-01-07T05:15:41;8.12;90.05
67572;SHT31;54397;47.506;19.158;2024-01-07T05:19:05;8.12;89.93
67572;SHT31;54397;47.506;19.158;2024-01-07T05:22:27;8.05;90.08
67572;SHT31;54397;47.506;19.158;2024-01-07T05:25:53;8.05;90.38
67572;SHT31;54397;47.506;19.158;2024-01-07T05:29:18;8.09;90.59
67572;SHT31;54397;47.506;19.158;2024-01-07T05:32:42;7.99;90.74
67572;SHT31;54397;47.506;19.158;2024-01-07T05:36:04;8.05;90.64
67572;SHT31;54397;47.506;19.158;2024-01-07T05:39:25;8.01;90.72
67572;SHT31;54397;47.506;19.158;2024-01-07T05:42:47;8.01;90.80
67572;SHT31;54397;47.506;19.158;2024-01-07T05:46:09;8.05;90.56
67572;SHT31;54397;47.506;19.158;2024-01-07T05:49:34;8.09;90.66
67572;SHT31;54397;47.506;19.158;2024-01-07T05:52:56;8.13;89.99
67572;SHT31;54397;47.506;19.158;2024-01-07T05:56:20;8.17;90.15
67572;SHT31;54397;47.506;19.158;2024-01-07T05:59:43;8.17;90.23
67572;SHT31;54397;47.506;19.158;2024-01-07T06:03:05;8.10;90.03
67572;SHT31;54397;47.506;19.158;2024-01-07T06:06:32;8.07;90.26
67572;SHT31;54397;47.506;19.158;2024-01-07T06:09:55;8.01;90.71
67572;SHT31;54397;47.506;19.158;2024-01-07T06:13:19;7.96;90.98
67572;SHT31;54397;47.506;19.158;2024-01-07T06:16:41;8.07;90.55
67572;SHT31;54397;47.506;19.158;2024-01-07T06:20:04;8.09;90.77
67572;SHT31;54397;47.506;19.158;2024-01-07T06:23:27;8.09;90.54
67572;SHT31;54397;47.506;19.158;2024-01-07T06:26:51;8.12;90.57
67572;SHT31;54397;47.506;19.158;2024-01-07T06:30:13;8.17;90.19
67572;SHT31;54397;47.506;19.158;2024-01-07T06:33:38;8.14;89.78
67572;SHT31;54397;47.506;19.158;2024-01-07T06:37:05;8.06;90.19
67572;SHT31;54397;47.506;19.158;2024-01-07T06:40:29;8.13;90.31
67572;SHT31;54397;47.506;19.158;2024-01-07T06:43:56;8.17;90.25
67572;SHT31;54397;47.506;19.158;2024-01-07T06:47:18;8.17;90.12
67572;SHT31;54397;47.506;19.158;2024-01-07T06:50:40;8.13;90.13
67572;SHT31;54397;47.506;19.158;2024-01-07T06:54:06;8.09;90.33
67572;SHT31;54397;47.506;19.158;2024-01-07T06:57:34;8.14;90.51
67572;SHT31;54397;47.506;19.158;2024-01-07T07:00:56;8.10;90.39
67572;SHT31;54397;47.506;19.158;2024-01-07T07:04:17;8.09;90.88
67572;SHT31;54397;47.506;19.158;2024-01-07T07:07:39;7.93;90.93
67572;SHT31;54397;47.506;19.158;2024-01-07T07:11:03;8.07;91.08
67572;SHT31;54397;47.506;19.158;2024-01-07T07:14:25;8.07;91.11
67572;SHT31;54397;47.506;19.158;2024-01-07T07:17:49;8.09;90.98
67572;SHT31;54397;47.506;19.158;2024-01-07T07:21:13;8.12;90.92
67572;SHT31;54397;47.506;19.158;2024-01-07T07:24:35;8.19;90.82
67572;SHT31;54397;47.506;19.158;2024-01-07T07:28:00;8.09;91.17
67572;SHT31;54397;47.506;19.158;2024-01-07T07:31:22;8.14;90.96
67572;SHT31;54397;47.506;19.158;2024-01-07T07:34:46;8.20;90.86
67572;SHT31;54397;47.506;19.158;2024-01-07T07:38:08;8.26;91.50
67572;SHT31;54397;47.506;19.158;2024-01-07T07:41:33;8.39;90.72
67572;SHT31;54397;47.506;19.158;2024-01-07T07:45:00;8.50;90.41
67572;SHT31;54397;47.506;19.158;2024-01-07T07:48:25;8.61;89.43
67572;SHT31;54397;47.506;19.158;2024-01-07T07:51:48;8.57;89.92
67572;SHT31;54397;47.506;19.158;2024-01-07T07:55:12;8.72;89.65
67572;SHT31;54397;47.506;19.158;2024-01-07T07:58:36;8.77;89.67
67572;SHT31;54397;47.506;19.158;2024-01-07T08:01:58;8.79;89.26
67572;SHT31;54397;47.506;19.158;2024-01-07T08:05:20;8.99;89.44
67572;SHT31;54397;47.506;19.158;2024-01-07T08:08:47;8.99;88.45
67572;SHT31;54397;47.506;19.158;2024-01-07T08:12:09;8.85;88.93
67572;SHT31;54397;47.506;19.158;2024-01-07T08:15:33;8.81;89.17
67572;SHT31;54397;47.506;19.158;2024-01-07T08:18:55;8.72;89.67
67572;SHT31;54397;47.506;19.158;2024-01-07T08:22:20;8.74;89.36
67572;SHT31;54397;47.506;19.158;2024-01-07T08:25:42;8.63;89.63
67572;SHT31;54397;47.506;19.158;2024-01-07T08:29:04;8.53;89.86
67572;SHT31;54397;47.506;19.158;2024-01-07T08:32:26;8.41;89.99
67572;SHT31;54397;47.506;19.158;2024-01-07T08:35:50;8.44;90.28
67572;SHT31;54397;47.506;19.158;2024-01-07T08:39:14;8.41;90.74
67572;SHT31;54397;47.506;19.158;2024-01-07T08:42:36;8.47;90.71
67572;SHT31;54397;47.506;19.158;2024-01-07T08:46:03;8.50;90.67
67572;SHT31;54397;47.506;19.158;2024-01-07T08:49:28;8.49;90.61
67572;SHT31;54397;47.506;19.158;2024-01-07T08:52:50;8.53;90.59
67572;SHT31;54397;47.506;19.158;2024-01-07T08:56:14;8.56;90.64
67572;SHT31;54397;47.506;19.158;2024-01-07T08:59:36;8.56;90.72
67572;SHT31;54397;47.506;19.158;2024-01-07T09:02:59;8.59;90.60
67572;SHT31;54397;47.506;19.158;2024-01-07T09:06:24;8.63;90.35
67572;SHT31;54397;47.506;19.158;2024-01-07T09:09:45;8.57;90.69
67572;SHT31;54397;47.506;19.158;2024-01-07T09:13:10;8.51;91.08
67572;SHT31;54397;47.506;19.158;2024-01-07T09:16:34;8.57;91.06
67572;SHT31;54397;47.506;19.158;2024-01-07T09:19:58;8.59;91.05
67572;SHT31;54397;47.506;19.158;2024-01-07T09:23:20;8.57;91.06
67572;SHT31;54397;47.506;19.158;2024-01-07T09:26:42;8.57;91.08
67572;SHT31;54397;47.506;19.158;2024-01-07T09:30:04;8.79;90.15
67572;SHT31;54397;47.506;19.158;2024-01-07T09:33:29;8.71;90.38
67572;SHT31;54397;47.506;19.158;2024-01-07T09:36:53;8.71;90.36
67572;SHT31;54397;47.506;19.158;2024-01-07T09:40:18;8.71;90.27
67572;SHT31;54397;47.506;19.158;2024-01-07T09:43:42;8.67;90.44
67572;SHT31;54397;47.506;19.158;2024-01-07T09:47:05;8.87;89.66
67572;SHT31;54397;47.506;19.158;2024-01-07T09:50:28;9.02;88.57
67572;SHT31;54397;47.506;19.158;2024-01-07T09:53:56;8.79;89.21
67572;SHT31;54397;47.506;19.158;2024-01-07T09:57:21;8.68;89.98
67572;SHT31;54397;47.506;19.158;2024-01-07T10:00:43;8.61;90.13
67572;SHT31;54397;47.506;19.158;2024-01-07T10:04:07;8.71;90.05
67572;SHT31;54397;47.506;19.158;2024-01-07T10:07:31;8.87;89.38
67572;SHT31;54397;47.506;19.158;2024-01-07T10:10:54;8.85;89.49
67572;SHT31;54397;47.506;19.158;2024-01-07T10:14:18;8.85;89.30
67572;SHT31;54397;47.506;19.158;2024-01-07T10:17:44;8.72;89.62
67572;SHT31;54397;47.506;19.158;2024-01-07T10:21:12;9.43;97.02
67572;SHT31;54397;47.506;19.158;2024-01-07T10:24:38;10.26;96.66
67572;SHT31;54397;47.506;19.158;2024-01-07T10:28:01;10.60;93.10
67572;SHT31;54397;47.506;19.158;2024-01-07T10:31:23;10.71;88.73
67572;SHT31;54397;47.506;19.158;2024-01-07T10:34:49;10.29;83.74
67572;SHT31;54397;47.506;19.158;2024-01-07T10:38:16;9.93;84.87
67572;SHT31;54397;47.506;19.158;2024-01-07T10:41:38;9.53;86.28
67572;SHT31;54397;47.506;19.158;2024-01-07T10:45:04;9.35;86.97
67572;SHT31;54397;47.506;19.158;2024-01-07T10:48:30;9.20;87.15
67572;SHT31;54397;47.506;19.158;2024-01-07T10:52:04;9.16;87.01
67572;SHT31;54397;47.506;19.158;2024-01-07T10:55:33;8.97;87.57
67572;SHT31;54397;47.506;19.158;2024-01-07T10:58:55;9.08;87.41
67572;SHT31;54397;47.506;19.158;2024-01-07T11:02:20;8.92;87.79
67572;SHT31;54397;47.506;19.158;2024-01-07T11:05:48;9.01;87.61
67572;SHT31;54397;47.506;19.158;2024-01-07T11:09:23;9.02;87.35
67572;SHT31;54397;47.506;19.158;2024-01-07T11:13:04;8.89;88.06
67572;SHT31;54397;47.506;19.158;2024-01-07T11:16:42;8.99;87.76
67572;SHT31;54397;47.506;19.158;2024-01-07T11:20:11;8.98;88.02
67572;SHT31;54397;47.506;19.158;2024-01-07T11:23:43;9.06;87.28
67572;SHT31;54397;47.506;19.158;2024-01-07T11:27:10;9.18;86.74
67572;SHT31;54397;47.506;19.158;2024-01-07T11:30:38;9.08;87.01
67572;SHT31;54397;47.506;19.158;2024-01-07T11:34:02;9.08;87.40
67572;SHT31;54397;47.506;19.158;2024-01-07T11:37:24;8.91;87.69
67572;SHT31;54397;47.506;19.158;2024-01-07T11:40:49;8.93;87.73
67572;SHT31;54397;47.506;19.158;2024-01-07T11:44:11;8.91;87.56
67572;SHT31;54397;47.506;19.158;2024-01-07T11:47:36;8.85;88.40
67572;SHT31;54397;47.506;19.158;2024-01-07T11:50:57;8.88;87.65
67572;SHT31;54397;47.506;19.158;2024-01-07T11:54:19;8.87;88.11
67572;SHT31;54397;47.506;19.158;2024-01-07T11:57:42;8.91;87.54
67572;SHT31;54397;47.506;19.158;2024-01-07T12:01:06;8.20;88.15
67572;SHT31;54397;47.506;19.158;2024-01-07T12:04:28;8.12;88.51
67572;SHT31;54397;47.506;19.158;2024-01-07T12:07:52;8.05;89.70
67572;SHT31;54397;47.506;19.158;2024-01-07T12:11:14;8.16;89.46
67572;SHT31;54397;47.506;19.158;2024-01-07T12:14:38;8.40;86.95
67572;SHT31;54397;47.506;19.158;2024-01-07T12:18:04;7.99;88.15
67572;SHT31;54397;47.506;19.158;2024-01-07T12:21:28;8.01;88.50
67572;SHT31;54397;47.506;19.158;2024-01-07T12:25:06;8.03;88.08
67572;SHT31;54397;47.506;19.158;2024-01-07T12:28:52;8.14;87.34
67572;SHT31;54397;47.506;19.158;2024-01-07T12:32:20;8.30;85.73
67572;SHT31;54397;47.506;19.158;2024-01-07T12:35:44;8.25;85.83
67572;SHT31;54397;47.506;19.158;2024-01-07T12:39:06;8.19;85.73
67572;SHT31;54397;47.506;19.158;2024-01-07T12:42:28;8.19;85.59
67572;SHT31;54397;47.506;19.158;2024-01-07T12:45:50;8.02;86.27
67572;SHT31;54397;47.506;19.158;2024-01-07T12:49:12;8.26;91.81
67572;SHT31;54397;47.506;19.158;2024-01-07T12:52:36;8.32;91.48
67572;SHT31;54397;47.506;19.158;2024-01-07T12:55:59;8.53;89.19
67572;SHT31;54397;47.506;19.158;2024-01-07T12:59:21;8.81;87.18
67572;SHT31;54397;47.506;19.158;2024-01-07T13:02:43;9.15;88.17
67572;SHT31;54397;47.506;19.158;2024-01-07T13:06:07;9.12;82.69
67572;SHT31;54397;47.506;19.158;2024-01-07T13:09:28;8.79;81.71
67572;SHT31;54397;47.506;19.158;2024-01-07T13:12:50;8.43;82.52
67572;SHT31;54397;47.506;19.158;2024-01-07T13:16:25;8.14;83.53
67572;SHT31;54397;47.506;19.158;2024-01-07T13:19:49;7.96;83.86
67572;SHT31;54397;47.506;19.158;2024-01-07T13:23:11;7.95;83.46
67572;SHT31;54397;47.506;19.158;2024-01-07T13:26:32;7.99;83.72
67572;SHT31;54397;47.506;19.158;2024-01-07T13:29:57;7.86;84.23
67572;SHT31;54397;47.506;19.158;2024-01-07T13:33:23;7.68;84.81
67572;SHT31;54397;47.506;19.158;2024-01-07T13:36:45;7.92;83.55
67572;SHT31;54397;47.506;19.158;2024-01-07T13:40:08;7.75;83.49
67572;SHT31;54397;47.506;19.158;2024-01-07T13:43:32;7.30;84.28
67572;SHT31;54397;47.506;19.158;2024-01-07T13:47:01;7.40;84.75
67572;SHT31;54397;47.506;19.158;2024-01-07T13:50:26;7.30;85.00
67572;SHT31;54397;47.506;19.158;2024-01-07T13:53:48;7.10;85.54
67572;SHT31;54397;47.506;19.158;2024-01-07T13:57:12;7.20;84.17
67572;SHT31;54397;47.506;19.158;2024-01-07T14:00:34;7.13;84.73
67572;SHT31;54397;47.506;19.158;2024-01-07T14:03:56;7.15;84.34
67572;SHT31;54397;47.506;19.158;2024-01-07T14:07:21;7.13;84.44
67572;SHT31;54397;47.506;19.158;2024-01-07T14:10:42;7.03;84.19
67572;SHT31;54397;47.506;19.158;2024-01-07T14:14:06;7.22;83.04
67572;SHT31;54397;47.506;19.158;2024-01-07T14:17:30;7.13;83.46
67572;SHT31;54397;47.506;19.158;2024-01-07T14:20:54;7.17;82.80
67572;SHT31;54397;47.506;19.158;2024-01-07T14:24:18;6.99;81.73
67572;SHT31;54397;47.506;19.158;2024-01-07T14:27:40;6.95;82.59
67572;SHT31;54397;47.506;19.158;2024-01-07T14:31:04;6.78;82.58
67572;SHT31;54397;47.506;19.158;2024-01-07T14:34:26;6.75;82.18
67572;SHT31;54397;47.506;19.158;2024-01-07T14:37:50;6.84;81.95
67572;SHT31;54397;47.506;19.158;2024-01-07T14:41:17;6.34;82.16
67572;SHT31;54397;47.506;19.158;2024-01-07T14:44:39;6.38;82.42
67572;SHT31;54397;47.506;19.158;2024-01-07T14:48:11;6.51;81.97
67572;SHT31;54397;47.506;19.158;2024-01-07T14:51:38;6.16;82.50
67572;SHT31;54397;47.506;19.158;2024-01-07T14:55:02;5.82;81.90
67572;SHT31;54397;47.506;19.158;2024-01-07T14:58:26;5.99;82.49
67572;SHT31;54397;47.506;19.158;2024-01-07T15:01:50;5.76;82.23
67572;SHT31;54397;47.506;19.158;2024-01-07T15:05:13;6.03;81.47
67572;SHT31;54397;47.506;19.158;2024-01-07T15:08:35;6.19;84.59
67572;SHT31;54397;47.506;19.158;2024-01-07T15:11:59;6.07;81.93
67572;SHT31;54397;47.506;19.158;2024-01-07T15:15:21;6.16;81.61
67572;SHT31;54397;47.506;19.158;2024-01-07T15:18:46;6.05;81.39
67572;SHT31;54397;47.506;19.158;2024-01-07T15:22:08;6.14;80.40
67572;SHT31;54397;47.506;19.158;2024-01-07T15:25:37;5.58;81.32
67572;SHT31;54397;47.506;19.158;2024-01-07T15:29:01;5.43;82.37
67572;SHT31;54397;47.506;19.158;2024-01-07T15:32:23;5.71;81.51
67572;SHT31;54397;47.506;19.158;2024-01-07T15:35:45;5.59;81.40
67572;SHT31;54397;47.506;19.158;2024-01-07T15:39:07;5.82;80.56
67572;SHT31;54397;47.506;19.158;2024-01-07T15:42:31;5.56;80.06
67572;SHT31;54397;47.506;19.158;2024-01-07T15:45:53;5.59;80.06
67572;SHT31;54397;47.506;19.158;2024-01-07T15:49:14;5.41;80.59
67572;SHT31;54397;47.506;19.158;2024-01-07T15:52:36;5.41;80.98
67572;SHT31;54397;47.506;19.158;2024-01-07T15:56:01;5.59;80.42
67572;SHT31;54397;47.506;19.158;2024-01-07T15:59:24;5.73;80.37
67572;SHT31;54397;47.506;19.158;2024-01-07T16:02:45;5.31;79.68
67572;SHT31;54397;47.506;19.158;2024-01-07T16:06:08;5.37;80.22
67572;SHT31;54397;47.506;19.158;2024-01-07T16:09:29;5.47;79.17
67572;SHT31;54397;47.506;19.158;2024-01-07T16:12:55;5.47;79.60
67572;SHT31;54397;47.506;19.158;2024-01-07T16:16:17;5.62;79.31
67572;SHT31;54397;47.506;19.158;2024-01-07T16:19:42;5.52;78.52
67572;SHT31;54397;47.506;19.158;2024-01-07T16:23:04;5.59;79.21
67572;SHT31;54397;47.506;19.158;2024-01-07T16:26:28;5.61;78.79
67572;SHT31;54397;47.506;19.158;2024-01-07T16:29:54;5.20;78.57
67572;SHT31;54397;47.506;19.158;2024-01-07T16:33:19;5.38;78.88
67572;SHT31;54397;47.506;19.158;2024-01-07T16:36:41;5.58;77.85
67572;SHT31;54397;47.506;19.158;2024-01-07T16:40:06;6.10;92.22
67572;SHT31;54397;47.506;19.158;2024-01-07T16:43:32;6.45;86.53
67572;SHT31;54397;47.506;19.158;2024-01-07T16:46:55;6.57;80.62
67572;SHT31;54397;47.506;19.158;2024-01-07T16:50:19;6.47;80.65
67572;SHT31;54397;47.506;19.158;2024-01-07T16:53:46;6.34;81.23
67572;SHT31;54397;47.506;19.158;2024-01-07T16:57:07;6.26;75.01
67572;SHT31;54397;47.506;19.158;2024-01-07T17:00:34;5.69;76.58
67572;SHT31;54397;47.506;19.158;2024-01-07T17:03:56;5.43;76.61
67572;SHT31;54397;47.506;19.158;2024-01-07T17:07:18;5.34;77.94
67572;SHT31;54397;47.506;19.158;2024-01-07T17:10:46;5.44;77.00
67572;SHT31;54397;47.506;19.158;2024-01-07T17:14:10;5.16;77.51
67572;SHT31;54397;47.506;19.158;2024-01-07T17:17:32;5.20;76.84
67572;SHT31;54397;47.506;19.158;2024-01-07T17:20:57;5.22;77.27
67572;SHT31;54397;47.506;19.158;2024-01-07T17:24:18;4.58;78.23
67572;SHT31;54397;47.506;19.158;2024-01-07T17:27:40;4.65;78.63
67572;SHT31;54397;47.506;19.158;2024-01-07T17:31:02;4.62;78.43
67572;SHT31;54397;47.506;19.158;2024-01-07T17:34:23;4.66;78.05
67572;SHT31;54397;47.506;19.158;2024-01-07T17:37:45;4.77;78.00
67572;SHT31;54397;47.506;19.158;2024-01-07T17:41:10;4.62;78.28
67572;SHT31;54397;47.506;19.158;2024-01-07T17:44:40;4.82;78.07
67572;SHT31;54397;47.506;19.158;2024-01-07T17:48:04;4.86;77.33
67572;SHT31;54397;47.506;19.158;2024-01-07T17:51:29;4.45;76.89
67572;SHT31;54397;47.506;19.158;2024-01-07T17:54:53;4.56;77.64
67572;SHT31;54397;47.506;19.158;2024-01-07T17:58:17;4.42;77.27
67572;SHT31;54397;47.506;19.158;2024-01-07T18:01:45;4.56;84.30
67572;SHT31;54397;47.506;19.158;2024-01-07T18:05:09;5.14;85.28
67572;SHT31;54397;47.506;19.158;2024-01-07T18:08:31;5.06;80.34
67572;SHT31;54397;47.506;19.158;2024-01-07T18:12:09;5.65;81.84
67572;SHT31;54397;47.506;19.158;2024-01-07T18:15:31;5.78;78.80
67572;SHT31;54397;47.506;19.158;2024-01-07T18:18:57;5.75;74.36
67572;SHT31;54397;47.506;19.158;2024-01-07T18:22:19;5.45;73.87
67572;SHT31;54397;47.506;19.158;2024-01-07T18:25:41;5.28;73.98
67572;SHT31;54397;47.506;19.158;2024-01-07T18:29:07;5.06;74.87
67572;SHT31;54397;47.506;19.158;2024-01-07T18:32:31;4.93;75.35
67572;SHT31;54397;47.506;19.158;2024-01-07T18:35:57;4.66;75.82
67572;SHT31;54397;47.506;19.158;2024-01-07T18:39:20;4.76;76.25
67572;SHT31;54397;47.506;19.158;2024-01-07T18:42:42;4.90;75.40
67572;SHT31;54397;47.506;19.158;2024-01-07T18:46:09;4.72;75.69
67572;SHT31;54397;47.506;19.158;2024-01-07T18:49:40;4.52;76.49
67572;SHT31;54397;47.506;19.158;2024-01-07T18:53:02;4.10;76.79
67572;SHT31;54397;47.506;19.158;2024-01-07T18:56:23;4.45;76.17
67572;SHT31;54397;47.506;19.158;2024-01-07T18:59:45;4.47;75.41
67572;SHT31;54397;47.506;19.158;2024-01-07T19:03:07;4.38;75.49
67572;SHT31;54397;47.506;19.158;2024-01-07T19:06:29;4.45;75.44
67572;SHT31;54397;47.506;19.158;2024-01-07T19:09:51;4.22;75.80
67572;SHT31;54397;47.506;19.158;2024-01-07T19:13:13;4.41;75.03
67572;SHT31;54397;47.506;19.158;2024-01-07T19:16:35;4.48;84.76
67572;SHT31;54397;47.506;19.158;2024-01-07T19:19:56;5.23;87.84
67572;SHT31;54397;47.506;19.158;2024-01-07T19:23:18;5.51;82.16
67572;SHT31;54397;47.506;19.158;2024-01-07T19:26:40;5.33;72.30
67572;SHT31;54397;47.506;19.158;2024-01-07T19:30:07;5.07;72.35
67572;SHT31;54397;47.506;19.158;2024-01-07T19:33:29;5.93;76.79
67572;SHT31;54397;47.506;19.158;2024-01-07T19:36:51;5.55;70.18
67572;SHT31;54397;47.506;19.158;2024-01-07T19:40:13;5.19;71.69
67572;SHT31;54397;47.506;19.158;2024-01-07T19:43:35;4.97;72.89
67572;SHT31;54397;47.506;19.158;2024-01-07T19:46:57;4.69;74.11
67572;SHT31;54397;47.506;19.158;2024-01-07T19:50:19;4.66;73.79
67572;SHT31;54397;47.506;19.158;2024-01-07T19:53:40;4.54;74.17
67572;SHT31;54397;47.506;19.158;2024-01-07T19:57:02;4.45;74.73
67572;SHT31;54397;47.506;19.158;2024-01-07T20:00:24;4.33;74.16
67572;SHT31;54397;47.506;19.158;2024-01-07T20:03:48;4.10;74.97
67572;SHT31;54397;47.506;19.158;2024-01-07T20:07:10;4.07;75.05
67572;SHT31;54397;47.506;19.158;2024-01-07T20:10:32;4.17;75.50
67572;SHT31;54397;47.506;19.158;2024-01-07T20:13:56;3.91;75.10
67572;SHT31;54397;47.506;19.158;2024-01-07T20:17:23;3.85;74.92
67572;SHT31;54397;47.506;19.158;2024-01-07T20:20:48;4.10;75.74
67572;SHT31;54397;47.506;19.158;2024-01-07T20:24:10;4.38;82.73
67572;SHT31;54397;47.506;19.158;2024-01-07T20:27:34;4.92;81.65
67572;SHT31;54397;47.506;19.158;2024-01-07T20:30:56;5.23;77.96
67572;SHT31;54397;47.506;19.158;2024-01-07T20:34:18;5.69;78.48
67572;SHT31;54397;47.506;19.158;2024-01-07T20:37:42;5.92;79.15
67572;SHT31;54397;47.506;19.158;2024-01-07T20:41:07;5.95;74.82
67572;SHT31;54397;47.506;19.158;2024-01-07T20:44:29;5.92;69.29
67572;SHT31;54397;47.506;19.158;2024-01-07T20:47:53;5.35;69.66
67572;SHT31;54397;47.506;19.158;2024-01-07T20:51:15;5.17;69.61
67572;SHT31;54397;47.506;19.158;2024-01-07T20:54:38;4.37;70.44
67572;SHT31;54397;47.506;19.158;2024-01-07T20:58:02;4.45;71.35
67572;SHT31;54397;47.506;19.158;2024-01-07T21:01:28;4.30;71.68
67572;SHT31;54397;47.506;19.158;2024-01-07T21:04:51;4.37;70.57
67572;SHT31;54397;47.506;19.158;2024-01-07T21:08:14;4.51;70.03
67572;SHT31;54397;47.506;19.158;2024-01-07T21:11:38;4.37;70.43
67572;SHT31;54397;47.506;19.158;2024-01-07T21:15:00;3.70;71.24
67572;SHT31;54397;47.506;19.158;2024-01-07T21:18:21;3.56;72.57
67572;SHT31;54397;47.506;19.158;2024-01-07T21:21:45;3.56;71.29
67572;SHT31;54397;47.506;19.158;2024-01-07T21:25:07;3.79;71.33